Time;durP1;ratioP1;P1;durP2;ratioP2;P2;SDS_P1;SDS_P2;PMS_P1;PMS_P2;Temp;Humidity;BMP_temperature;BMP_pressure;BME280_temperature;BME280_humidity;BME280_pressure;Samples;Min_cycle;Max_cycle;Signal;HPM_P1;HPM_P2
2022/10/16 00:01:24;;;;;;;4.22;0.40;;;;;;;10.76;69.29;98833.53;4985124;28;20070;-43
2022/10/16 00:03:51;;;;;;;3.10;1.42;;;;;;;10.72;69.00;98831.91;4982805;28;20164;-41
2022/10/16 00:06:20;;;;;;;4.25;0.60;;;;;;;10.70;69.61;98832.84;4980651;28;20070;-41
2022/10/16 00:08:48;;;;;;;4.95;1.13;;;;;;;10.64;69.23;98831.25;4981482;28;20146;-42
2022/10/16 00:11:19;;;;;;;5.00;0.57;;;;;;;10.62;69.79;98830.41;4981141;28;20074;-40
2022/10/16 00:13:47;;;;;;;3.70;0.65;;;;;;;10.58;69.49;98833.94;4983494;28;20043;-42
2022/10/16 00:16:15;;;;;;;3.92;0.70;;;;;;;10.58;69.52;98855.53;4981659;28;20051;-43
2022/10/16 00:18:43;;;;;;;5.00;1.80;;;;;;;10.54;70.35;98854.72;4980326;28;20125;-41
2022/10/16 00:21:14;;;;;;;4.85;0.90;;;;;;;10.51;69.57;98854.78;4984039;28;20620;-40
2022/10/16 00:23:41;;;;;;;4.63;1.08;;;;;;;10.48;70.62;98854.88;4980564;28;21194;-42
2022/10/16 00:26:12;;;;;;;6.43;1.17;;;;;;;10.47;70.14;98858.31;4982317;28;20109;-40
2022/10/16 00:28:38;;;;;;;5.47;0.85;;;;;;;10.46;70.70;98859.22;4983607;28;20082;-42
2022/10/16 00:31:07;;;;;;;2.95;0.93;;;;;;;10.45;70.78;98870.47;4983134;28;20042;-42
2022/10/16 00:33:35;;;;;;;3.33;0.82;;;;;;;10.44;70.88;98863.56;4978437;28;20078;-42
2022/10/16 00:36:04;;;;;;;7.55;0.80;;;;;;;10.45;70.67;98865.28;4969209;28;20079;-41
2022/10/16 00:38:31;;;;;;;4.53;0.35;;;;;;;10.47;70.17;98863.50;4967986;28;20042;-41
2022/10/16 00:40:58;;;;;;;7.88;0.55;;;;;;;10.46;70.63;98869.56;4972241;28;20344;-42
2022/10/16 00:43:45;;;;;;;4.35;0.63;;;;;;;10.39;70.37;98868.81;4970263;28;20556;-42
2022/10/16 00:49:12;;;;;;;6.53;1.90;;;;;;;10.39;70.30;98871.41;5097911;27;20587;-43
2022/10/16 00:51:42;;;;;;;9.13;2.05;;;;;;;10.43;71.16;98868.78;5054868;28;20132;-42
2022/10/16 00:54:14;;;;;;;9.13;2.47;;;;;;;10.43;70.88;98867.00;5053814;28;20081;-42
2022/10/16 00:56:43;;;;;;;7.28;2.05;;;;;;;10.45;70.24;98869.59;5052159;28;20071;-42
2022/10/16 00:59:31;;;;;;;7.35;1.92;;;;;;;10.39;71.12;98865.38;5058947;28;20119;-42
2022/10/16 01:01:58;;;;;;;5.82;1.63;;;;;;;10.45;70.49;98867.88;5073193;28;20165;-39
2022/10/16 01:04:29;;;;;;;7.20;2.03;;;;;;;10.41;70.73;98881.75;5062148;28;20136;-42
2022/10/16 01:15:06;;;;;;;6.05;0.50;;;;;;;10.44;70.07;98879.09;5099163;27;20128;-41
2022/10/16 01:17:56;;;;;;;3.38;0.52;;;;;;;10.41;70.81;98879.16;5041592;28;20084;-42
2022/10/16 01:20:26;;;;;;;;;;;;;;;10.32;70.61;98874.16;5046063;28;21210;-43
2022/10/16 01:28:13;;;;;;;5.28;1.40;;;;;;;10.44;70.34;98884.28;5070637;27;20119;-42
2022/10/16 01:30:43;;;;;;;5.18;1.83;;;;;;;10.44;70.20;98884.28;5058421;28;20530;-43
2022/10/16 01:33:20;;;;;;;5.28;1.23;;;;;;;10.44;70.55;98884.28;5057098;28;20408;-41
2022/10/16 01:35:52;;;;;;;3.80;1.50;;;;;;;10.45;71.05;98886.00;5056570;28;20102;-39
2022/10/16 01:38:30;;;;;;;6.85;1.70;;;;;;;10.42;70.20;98891.19;5060995;28;20136;-40
2022/10/16 01:41:03;;;;;;;7.22;2.17;;;;;;;10.46;70.79;98898.06;5061314;28;20040;-42
2022/10/16 01:43:38;;;;;;;4.15;0.88;;;;;;;10.47;70.38;98899.75;5061840;28;20079;-42
2022/10/16 01:46:05;;;;;;;5.15;1.50;;;;;;;10.46;70.33;98903.22;5062240;28;20110;-42
2022/10/16 01:48:33;;;;;;;6.70;1.83;;;;;;;10.44;70.43;98899.81;5059994;28;20045;-47
2022/10/16 01:51:08;;;;;;;2.92;1.40;;;;;;;10.43;71.01;98892.91;5063080;28;20128;-41
2022/10/16 01:53:36;;;;;;;7.28;1.50;;;;;;;10.48;70.23;98900.59;5062011;28;20131;-41
2022/10/16 01:56:07;;;;;;;7.03;2.05;;;;;;;10.47;70.71;98904.94;5058893;28;20080;-41
2022/10/16 01:58:37;;;;;;;7.20;1.58;;;;;;;10.49;70.06;98907.47;5058974;28;20147;-41
2022/10/16 02:01:09;;;;;;;4.97;1.58;;;;;;;10.47;70.83;98902.34;5060584;28;20486;-39
2022/10/16 02:03:40;;;;;;;2.33;1.13;;;;;;;10.49;70.81;98910.06;5059408;28;20508;-42
2022/10/16 02:06:07;;;;;;;9.35;1.58;;;;;;;10.49;70.52;98912.66;5060648;28;20052;-40
2022/10/16 02:08:35;;;;;;;9.90;1.88;;;;;;;10.47;70.57;98915.28;5061862;28;20751;-41
2022/10/16 02:11:02;;;;;;;7.53;1.95;;;;;;;10.50;69.98;98930.75;5059850;28;20072;-41
2022/10/16 02:13:45;;;;;;;5.00;1.60;;;;;;;10.46;70.82;98929.13;5057044;28;20080;-41
2022/10/16 02:16:13;;;;;;;2.45;0.95;;;;;;;10.47;70.16;98929.97;5063047;28;20151;-42
2022/10/16 02:18:41;;;;;;;7.40;1.50;;;;;;;10.48;70.46;98929.94;5061997;28;20135;-40
2022/10/16 02:21:18;;;;;;;5.80;1.15;;;;;;;10.44;70.43;98925.69;5059529;28;20072;-41
2022/10/16 02:26:45;;;;;;;1.63;0.32;;;;;;;10.44;70.08;98925.69;5130672;27;20617;-41
2022/10/16 02:29:16;;;;;;;4.57;0.63;;;;;;;10.45;70.10;98937.78;5063141;28;20075;-41
2022/10/16 02:31:47;;;;;;;7.40;0.52;;;;;;;10.44;69.93;98940.34;5060562;28;20740;-42
2022/10/16 02:34:16;;;;;;;5.57;0.60;;;;;;;10.45;69.85;98953.31;5059071;28;20144;-43
2022/10/16 02:36:45;;;;;;;3.67;0.35;;;;;;;10.44;70.36;98955.88;5060047;28;20072;-41
2022/10/16 02:39:13;;;;;;;5.45;0.50;;;;;;;10.39;70.04;98956.84;5057374;28;20049;-43
2022/10/16 02:41:40;;;;;;;1.52;0.20;;;;;;;10.45;69.66;98958.47;5051566;28;20170;-42
2022/10/16 02:44:06;;;;;;;3.67;0.52;;;;;;;10.44;70.34;98961.94;5058369;28;20121;-42
2022/10/16 02:46:33;;;;;;;1.77;1.55;;;;;;;10.40;69.44;98970.59;5061369;28;20435;-43
2022/10/16 02:48:59;;;;;;;3.75;0.30;;;;;;;10.43;69.60;98960.22;5058619;28;20136;-43
2022/10/16 02:51:26;;;;;;;2.42;0.50;;;;;;;10.42;69.22;98984.38;5060603;28;20140;-42
2022/10/16 02:53:52;;;;;;;3.08;0.40;;;;;;;10.41;69.20;98987.88;5061286;28;20128;-43
2022/10/16 02:56:19;;;;;;;3.30;0.35;;;;;;;10.39;69.93;98994.81;5059573;28;20123;-40
2022/10/16 02:58:46;;;;;;;3.97;0.65;;;;;;;10.40;69.53;98987.00;5062226;28;20048;-42
2022/10/16 03:01:14;;;;;;;4.32;0.20;;;;;;;10.38;70.21;98987.94;5058655;28;20541;-40
2022/10/16 03:03:40;;;;;;;3.50;0.32;;;;;;;10.36;69.51;98984.50;5061393;28;20515;-42
2022/10/16 03:06:07;;;;;;;1.90;0.40;;;;;;;10.35;70.12;98993.16;5059201;28;20072;-41
2022/10/16 03:08:34;;;;;;;2.85;0.30;;;;;;;10.35;69.95;98995.75;5059137;28;22412;-43
2022/10/16 03:11:00;;;;;;;2.78;0.40;;;;;;;10.34;69.21;99002.63;5060419;28;20557;-43
2022/10/16 03:13:27;;;;;;;5.57;0.25;;;;;;;10.32;69.24;99013.91;5063032;28;20052;-41
2022/10/16 03:15:54;;;;;;;3.00;0.40;;;;;;;10.32;69.82;99019.09;5061901;28;20115;-42
2022/10/16 03:18:21;;;;;;;6.82;1.95;;;;;;;10.30;69.14;99021.69;5058418;28;20488;-43
2022/10/16 03:20:47;;;;;;;4.30;0.40;;;;;;;10.28;70.11;99021.75;5059265;28;20110;-42
2022/10/16 03:23:14;;;;;;;2.10;0.55;;;;;;;10.25;69.49;99039.06;5063566;28;20084;-43
2022/10/16 03:25:41;;;;;;;2.97;0.28;;;;;;;10.22;69.41;99032.22;5052551;28;20076;-43
2022/10/16 03:28:08;;;;;;;1.77;0.60;;;;;;;10.20;69.89;99039.13;5062037;28;20068;-42
2022/10/16 03:30:34;;;;;;;3.15;0.13;;;;;;;10.19;69.87;99040.00;5057728;28;20136;-41
2022/10/16 03:33:01;;;;;;;4.18;0.30;;;;;;;10.17;69.78;99052.13;5059328;28;20135;-43
2022/10/16 03:35:28;;;;;;;2.40;0.30;;;;;;;10.14;70.03;99047.00;5059770;28;20084;-43
2022/10/16 03:37:54;;;;;;;4.78;0.40;;;;;;;10.13;70.49;99050.47;5043543;28;20131;-42
2022/10/16 03:40:21;;;;;;;5.97;0.70;;;;;;;10.11;70.08;99049.66;5046302;28;20064;-41
2022/10/16 03:42:47;;;;;;;4.05;0.80;;;;;;;10.10;71.11;99063.47;5042421;28;20045;-43
2022/10/16 03:45:14;;;;;;;5.90;0.85;;;;;;;10.10;70.25;99060.88;5047734;28;20098;-43
2022/10/16 03:47:41;;;;;;;2.53;0.40;;;;;;;10.08;70.91;99060.91;5048129;28;20076;-41
2022/10/16 03:50:08;;;;;;;2.63;0.30;;;;;;;10.08;70.67;99072.97;5043268;28;20045;-42
2022/10/16 03:52:35;;;;;;;4.65;0.57;;;;;;;10.05;71.66;99068.72;5047392;28;20076;-43
2022/10/16 03:55:02;;;;;;;3.67;0.30;;;;;;;10.04;71.07;99072.19;5030398;28;20065;-43
2022/10/16 03:57:28;;;;;;;6.95;0.85;;;;;;;10.02;70.89;99079.97;5028719;28;20428;-40
2022/10/16 03:59:55;;;;;;;6.25;0.77;;;;;;;10.00;71.29;99092.06;5026039;28;20049;-43
2022/10/16 04:02:22;;;;;;;6.93;0.30;;;;;;;9.99;70.95;99099.84;5028800;28;20049;-43
2022/10/16 04:04:49;;;;;;;3.85;0.60;;;;;;;9.95;70.74;99101.63;5029544;28;20099;-40
2022/10/16 04:07:15;;;;;;;9.65;0.75;;;;;;;9.93;71.30;99100.78;5029018;28;20132;-41
2022/10/16 04:09:42;;;;;;;4.35;0.47;;;;;;;9.92;71.07;99112.03;5029016;28;20496;-39
2022/10/16 04:12:08;;;;;;;7.97;0.55;;;;;;;9.92;71.49;99117.19;5028926;28;20084;-41
2022/10/16 04:14:35;;;;;;;8.02;0.82;;;;;;;9.88;71.72;99118.13;5025015;28;20099;-41
2022/10/16 04:17:02;;;;;;;3.67;0.60;;;;;;;9.86;71.65;99114.72;5028766;28;20072;-42
2022/10/16 04:19:28;;;;;;;3.60;1.30;;;;;;;9.85;72.24;99118.16;5027987;28;20672;-42
2022/10/16 04:21:55;;;;;;;3.67;1.02;;;;;;;9.85;72.22;99123.34;5028940;28;20413;-42
2022/10/16 04:24:21;;;;;;;3.95;1.77;;;;;;;9.84;71.96;99131.97;5028547;28;20092;-43
2022/10/16 04:26:48;;;;;;;7.38;0.57;;;;;;;9.84;71.80;99142.31;5027042;28;20050;-43
2022/10/16 04:29:15;;;;;;;6.53;2.92;;;;;;;9.80;72.58;99148.41;5023237;28;20042;-40
2022/10/16 04:31:41;;;;;;;4.72;0.60;;;;;;;9.80;72.78;99156.19;5028861;28;20541;-40
2022/10/16 04:34:08;;;;;;;2.13;0.38;;;;;;;9.79;72.51;99159.66;5024458;28;20049;-41
2022/10/16 04:36:34;;;;;;;5.80;0.65;;;;;;;9.79;72.11;99170.00;5027829;28;20413;-43
2022/10/16 04:39:01;;;;;;;4.45;0.60;;;;;;;9.76;72.48;99179.50;5027991;28;20069;-41
2022/10/16 04:41:28;;;;;;;5.10;0.52;;;;;;;9.76;72.23;99195.00;5026198;28;20137;-42
2022/10/16 04:43:55;;;;;;;3.20;0.40;;;;;;;9.75;72.66;99188.13;5026407;28;20164;-42
2022/10/16 04:46:21;;;;;;;7.03;0.35;;;;;;;9.73;72.37;99205.38;5026529;28;20165;-43
2022/10/16 04:48:48;;;;;;;2.85;0.93;;;;;;;9.71;72.40;99204.56;5034823;28;20048;-43
2022/10/16 04:51:15;;;;;;;6.13;0.63;;;;;;;9.72;72.64;99210.56;5046389;28;20124;-42
2022/10/16 04:53:41;;;;;;;8.57;1.65;;;;;;;9.71;73.04;99199.38;5042839;28;20128;-41
2022/10/16 04:56:08;;;;;;;4.13;0.60;;;;;;;9.70;73.04;99217.50;5028285;28;20120;-42
2022/10/16 04:58:34;;;;;;;4.38;0.70;;;;;;;9.69;72.80;99210.63;5044295;28;20183;-43
2022/10/16 05:01:01;;;;;;;2.08;0.30;;;;;;;9.66;72.92;99219.25;5044315;28;20464;-43
2022/10/16 05:03:27;;;;;;;7.00;0.40;;;;;;;9.65;72.73;99220.13;5047333;28;20433;-42
2022/10/16 05:05:59;;;;;;;6.18;0.40;;;;;;;9.64;72.99;99231.38;5045002;28;20055;-43
2022/10/16 05:08:26;;;;;;;5.63;0.68;;;;;;;9.63;73.09;99237.41;5046363;28;20045;-43
2022/10/16 05:10:52;;;;;;;7.45;0.60;;;;;;;9.62;73.07;99251.19;5037498;28;20141;-43
2022/10/16 05:13:19;;;;;;;4.03;0.45;;;;;;;9.61;72.96;99254.66;5044640;28;20132;-41
2022/10/16 05:15:48;;;;;;;5.60;0.70;;;;;;;9.61;72.79;99265.00;5045720;28;20454;-41
2022/10/16 05:18:15;;;;;;;3.08;0.93;;;;;;;9.55;72.33;99265.09;5045504;28;20049;-41
2022/10/16 05:20:42;;;;;;;3.65;1.55;;;;;;;9.54;72.57;99274.56;5045997;28;20144;-42
2022/10/16 05:23:10;;;;;;;5.30;0.60;;;;;;;9.54;73.02;99278.88;5045041;28;20441;-41
2022/10/16 05:25:37;;;;;;;3.70;0.60;;;;;;;9.51;72.95;99280.63;5042296;28;20437;-42
2022/10/16 05:28:04;;;;;;;6.15;0.43;;;;;;;9.49;73.01;99291.88;5044445;28;20041;-42
2022/10/16 05:30:30;;;;;;;3.95;0.98;;;;;;;9.46;72.91;99292.72;5043338;28;20487;-42
2022/10/16 05:32:57;;;;;;;6.38;0.98;;;;;;;9.45;72.81;99298.78;5046025;28;20562;-43
2022/10/16 05:35:24;;;;;;;7.18;0.60;;;;;;;9.42;72.56;99301.38;5045637;28;20055;-41
2022/10/16 05:37:50;;;;;;;14.77;2.83;;;;;;;9.42;73.37;99316.91;5046018;28;20570;-41
2022/10/16 05:40:17;;;;;;;4.60;2.25;;;;;;;9.39;72.79;99322.09;5042397;28;20155;-41
2022/10/16 05:42:43;;;;;;;5.97;0.30;;;;;;;9.39;73.30;99327.25;5042504;28;20049;-41
2022/10/16 05:45:11;;;;;;;3.78;0.88;;;;;;;9.36;72.99;99328.16;5041420;28;20441;-42
2022/10/16 05:47:39;;;;;;;8.82;0.50;;;;;;;9.36;73.76;99337.66;5044753;28;20049;-42
2022/10/16 05:50:06;;;;;;;5.45;0.55;;;;;;;9.34;73.10;99341.97;5043269;28;20073;-41
2022/10/16 05:52:33;;;;;;;9.73;0.70;;;;;;;9.32;73.30;99349.72;5046175;28;20126;-42
2022/10/16 05:55:00;;;;;;;7.32;0.52;;;;;;;9.31;73.07;99349.75;5028260;28;20069;-42
2022/10/16 05:57:26;;;;;;;5.07;0.65;;;;;;;9.29;73.21;99356.66;5024510;28;20065;-40
2022/10/16 05:59:53;;;;;;;7.18;0.65;;;;;;;9.28;73.16;99354.97;5025015;28;20057;-43
2022/10/16 06:02:21;;;;;;;4.65;0.40;;;;;;;9.26;73.46;99357.56;5026585;28;20140;-42
2022/10/16 06:04:47;;;;;;;3.67;0.52;;;;;;;9.24;73.90;99359.28;5028067;28;20099;-42
2022/10/16 06:07:14;;;;;;;9.00;2.25;;;;;;;9.20;73.96;99353.28;5025444;28;20133;-42
2022/10/16 06:09:40;;;;;;;11.20;1.27;;;;;;;9.19;73.71;99355.88;5023522;28;20445;-41
2022/10/16 06:12:07;;;;;;;9.15;0.52;;;;;;;9.18;73.55;99364.50;5026904;28;20095;-41
2022/10/16 06:14:34;;;;;;;7.25;0.70;;;;;;;9.16;74.16;99353.31;5026911;28;20073;-40
2022/10/16 06:17:00;;;;;;;3.33;0.45;;;;;;;9.15;73.73;99357.63;5027193;28;20048;-43
2022/10/16 06:19:27;;;;;;;9.45;0.95;;;;;;;9.11;73.76;99358.50;5025545;28;20147;-42
2022/10/16 06:21:53;;;;;;;3.72;0.30;;;;;;;9.10;73.74;99364.56;5025301;28;20140;-41
2022/10/16 06:24:20;;;;;;;1.80;0.50;;;;;;;9.11;73.40;99361.09;5021949;28;20069;-43
2022/10/16 06:26:47;;;;;;;6.35;1.88;;;;;;;9.09;73.84;99362.84;5026268;28;20128;-42
2022/10/16 06:29:14;;;;;;;3.22;0.50;;;;;;;9.08;73.72;99379.19;5026927;28;20041;-41
2022/10/16 06:31:40;;;;;;;7.75;0.70;;;;;;;9.08;73.87;99379.19;5026036;28;20045;-43
2022/10/16 06:34:10;;;;;;;6.28;1.92;;;;;;;9.07;73.97;99382.66;5025746;28;20045;-44
2022/10/16 06:36:38;;;;;;;3.80;1.40;;;;;;;9.07;73.83;99387.81;5023284;28;20756;-43
2022/10/16 06:39:07;;;;;;;5.85;1.88;;;;;;;9.05;74.28;99397.31;5023305;28;20129;-40
2022/10/16 06:41:33;;;;;;;4.72;1.33;;;;;;;9.03;74.01;99399.91;5025907;28;20515;-43
2022/10/16 06:44:00;;;;;;;7.60;0.88;;;;;;;9.02;74.02;99405.09;5027081;28;20076;-43
2022/10/16 06:46:27;;;;;;;4.88;0.52;;;;;;;9.02;74.51;99423.19;5025194;28;20064;-43
2022/10/16 06:48:54;;;;;;;4.97;0.60;;;;;;;9.02;74.14;99420.59;5038189;28;20106;-43
2022/10/16 06:51:23;;;;;;;4.95;1.92;;;;;;;9.03;74.03;99427.47;5041775;28;20114;-40
2022/10/16 06:53:52;;;;;;;4.38;0.52;;;;;;;9.02;74.12;99430.94;5038879;28;20121;-44
2022/10/16 06:56:31;;;;;;;7.88;1.00;;;;;;;9.03;73.86;99437.78;5041364;28;20766;-40
2022/10/16 06:58:58;;;;;;;6.80;0.90;;;;;;;9.04;74.20;99436.91;5038593;28;20056;-42
2022/10/16 07:01:25;;;;;;;5.75;0.70;;;;;;;9.05;74.09;99443.81;5045887;28;20045;-41
2022/10/16 07:03:52;;;;;;;6.18;0.82;;;;;;;9.07;74.52;99449.81;5044207;28;20131;-45
2022/10/16 07:06:22;;;;;;;12.95;2.50;;;;;;;9.10;74.32;99460.16;5045121;28;20076;-42
2022/10/16 07:08:50;;;;;;;4.38;1.80;;;;;;;9.11;74.12;99459.28;5041229;28;20041;-41
2022/10/16 07:11:19;;;;;;;13.45;5.50;;;;;;;9.12;74.43;99464.44;5042165;28;20049;-41
2022/10/16 07:13:47;;;;;;;18.77;5.53;;;;;;;9.15;74.17;99473.88;5049342;28;20123;-45
2022/10/16 07:16:23;;;;;;;20.15;5.15;;;;;;;9.19;74.19;99477.31;5048684;28;20080;-43
2022/10/16 07:18:51;;;;;;;13.70;5.45;;;;;;;9.22;74.00;99482.47;5043720;28;20132;-41
2022/10/16 07:21:22;;;;;;;3.42;1.00;;;;;;;9.24;74.21;99484.19;5044907;28;20053;-42
2022/10/16 07:23:51;;;;;;;6.63;0.70;;;;;;;9.25;74.21;99491.06;5047901;28;20055;-42
2022/10/16 07:26:18;;;;;;;7.45;1.52;;;;;;;9.31;74.03;99499.63;5048211;28;20525;-42
2022/10/16 07:28:45;;;;;;;12.02;1.08;;;;;;;9.34;74.14;99505.66;5044582;28;20045;-43
2022/10/16 07:31:14;;;;;;;7.97;0.88;;;;;;;9.39;73.88;99510.78;5044686;28;20121;-43
2022/10/16 07:33:44;;;;;;;5.45;0.80;;;;;;;9.44;74.43;99506.44;5043110;28;20132;-42
2022/10/16 07:36:12;;;;;;;8.80;2.78;;;;;;;9.65;73.56;99509.75;5046716;28;20036;-42
2022/10/16 07:38:42;;;;;;;7.53;1.40;;;;;;;10.14;73.93;99512.78;5049071;28;20668;-42
2022/10/16 07:41:12;;;;;;;4.32;1.10;;;;;;;10.58;72.86;99518.41;5046336;28;20133;-42
2022/10/16 07:43:39;;;;;;;4.00;1.73;;;;;;;10.90;73.41;99518.88;5048876;28;20479;-41
2022/10/16 07:46:05;;;;;;;8.02;0.70;;;;;;;11.14;71.96;99527.22;5049639;28;20045;-44
2022/10/16 07:48:33;;;;;;;7.53;0.60;;;;;;;11.25;73.05;99525.31;5048595;28;20057;-41
2022/10/16 07:51:02;;;;;;;10.48;1.17;;;;;;;11.29;72.89;99532.19;5040241;28;20053;-44
2022/10/16 07:53:29;;;;;;;5.60;0.77;;;;;;;11.30;71.34;99539.09;5048047;28;20053;-42
2022/10/16 07:55:59;;;;;;;8.27;1.75;;;;;;;11.37;72.20;99533.81;5043122;28;20081;-45
2022/10/16 07:58:27;;;;;;;4.47;0.60;;;;;;;11.43;71.96;99532.00;5025952;28;20049;-44
2022/10/16 08:00:55;;;;;;;5.28;0.40;;;;;;;11.60;72.20;99538.66;5026504;28;20052;-42
2022/10/16 08:03:22;;;;;;;3.15;1.52;;;;;;;11.75;72.06;99555.72;5028927;28;20474;-43
2022/10/16 08:05:49;;;;;;;11.20;1.25;;;;;;;11.86;71.32;99562.50;5028584;28;20047;-43
2022/10/16 08:08:16;;;;;;;6.60;0.82;;;;;;;11.91;72.61;99571.06;5029053;28;20037;-41
2022/10/16 08:10:43;;;;;;;3.25;0.80;;;;;;;12.00;73.13;99572.66;5029316;28;20091;-46
2022/10/16 08:13:10;;;;;;;5.20;1.73;;;;;;;12.13;72.78;99586.31;5027772;28;20472;-42
2022/10/16 08:15:37;;;;;;;6.38;0.90;;;;;;;12.27;72.61;99592.16;5026776;28;20049;-47
2022/10/16 08:18:05;;;;;;;6.05;0.95;;;;;;;12.51;73.23;99602.97;5029865;28;20059;-46
2022/10/16 08:20:33;;;;;;;11.80;2.60;;;;;;;12.80;73.26;99601.56;5043358;28;20057;-44
2022/10/16 08:23:01;;;;;;;9.32;1.20;;;;;;;13.16;72.59;99600.00;5045483;28;20083;-44
2022/10/16 08:25:28;;;;;;;7.10;0.82;;;;;;;13.50;71.82;99609.72;5040283;28;20132;-44
2022/10/16 08:27:55;;;;;;;8.48;1.02;;;;;;;13.69;71.61;99610.19;5047875;28;20124;-44
2022/10/16 08:30:23;;;;;;;5.95;0.85;;;;;;;13.94;70.84;99606.13;5043460;28;20654;-43
2022/10/16 08:32:50;;;;;;;6.32;0.80;;;;;;;14.52;70.34;99610.78;5045867;28;20049;-44
2022/10/16 08:35:17;;;;;;;5.85;0.47;;;;;;;15.56;68.90;99609.66;5046183;28;20049;-44
2022/10/16 08:37:44;;;;;;;2.88;0.70;;;;;;;16.73;66.36;99616.38;5039721;28;20048;-45
2022/10/16 08:40:19;;;;;;;4.65;0.88;;;;;;;17.55;63.27;99619.53;5043994;28;20095;-46
2022/10/16 08:50:47;;;;;;;5.10;1.00;;;;;;;20.26;58.93;99636.66;5098887;27;20131;-44
2022/10/16 08:53:20;;;;;;;5.40;1.45;;;;;;;21.28;57.53;99650.78;5040745;28;20056;-44
2022/10/16 08:55:51;;;;;;;4.70;0.68;;;;;;;22.28;55.86;99644.44;5035572;28;20441;-42
2022/10/16 08:58:20;;;;;;;2.63;1.02;;;;;;;23.21;53.56;99653.94;5034063;28;20053;-48
2022/10/16 09:00:50;;;;;;;3.08;0.90;;;;;;;23.97;51.79;99649.16;5032574;28;20081;-45
2022/10/16 09:16:35;;;;;;;4.25;0.88;;;;;;;27.51;43.44;99680.56;5061650;27;20399;-47
2022/10/16 09:19:36;;;;;;;2.97;0.95;;;;;;;28.03;42.67;99680.00;5061683;28;20053;-45
2022/10/16 09:22:13;;;;;;;4.82;0.40;;;;;;;28.59;40.85;99686.88;5062511;28;20139;-47
2022/10/16 09:24:39;;;;;;;4.55;1.60;;;;;;;28.87;40.74;99683.66;5061871;28;20083;-46
2022/10/16 09:27:11;;;;;;;7.70;2.13;;;;;;;29.13;39.53;99683.25;5063853;28;20052;-51
2022/10/16 09:29:38;;;;;;;5.40;1.27;;;;;;;29.41;39.09;99691.50;5062667;28;20052;-48
2022/10/16 09:32:17;;;;;;;3.90;0.90;;;;;;;29.68;37.48;99703.38;5063897;28;20072;-46
2022/10/16 09:34:50;;;;;;;3.30;0.65;;;;;;;29.76;37.81;99700.88;5055997;28;20127;-48
2022/10/16 09:37:19;;;;;;;3.95;1.10;;;;;;;29.93;37.39;99692.34;5058488;28;20137;-46
2022/10/16 09:39:50;;;;;;;2.47;0.75;;;;;;;30.01;36.68;99695.16;5062021;28;20044;-49
2022/10/16 09:42:20;;;;;;;4.10;0.80;;;;;;;30.07;35.79;99697.28;5061096;28;20044;-46
2022/10/16 09:44:50;;;;;;;1.73;0.65;;;;;;;30.14;35.47;99703.78;5056805;28;20496;-50
2022/10/16 09:47:21;;;;;;;2.65;1.02;;;;;;;30.22;36.04;99711.06;5059419;28;20539;-48
2022/10/16 09:49:56;;;;;;;2.83;0.75;;;;;;;30.42;35.67;99697.69;5060498;28;20049;-46
2022/10/16 09:52:23;;;;;;;3.65;1.50;;;;;;;30.51;35.05;99699.53;5061990;28;20098;-47
2022/10/16 09:54:54;;;;;;;3.45;2.03;;;;;;;30.56;34.75;99700.94;5041638;28;20052;-46
2022/10/16 09:57:21;;;;;;;9.98;6.05;;;;;;;30.68;34.72;99693.56;5059821;28;20091;-45
2022/10/16 09:59:51;;;;;;;3.17;1.30;;;;;;;30.78;34.45;99695.28;5062965;28;20511;-46
2022/10/16 10:02:38;;;;;;;3.05;1.40;;;;;;;30.97;33.69;99698.03;5059091;28;20123;-43
2022/10/16 10:05:17;;;;;;;4.95;1.67;;;;;;;31.04;33.25;99694.63;5063204;28;20056;-46
2022/10/16 10:07:45;;;;;;;2.72;0.82;;;;;;;31.06;32.48;99690.97;5062722;28;20049;-45
2022/10/16 10:10:22;;;;;;;;;;;;;;;31.34;33.45;99699.88;5060725;28;20468;-46
2022/10/16 10:12:48;;;;;;;1.67;0.80;;;;;;;30.99;33.08;99696.03;5062938;28;19920;-44
2022/10/16 10:15:21;;;;;;;4.32;1.02;;;;;;;30.91;31.76;99694.13;5057728;28;20041;-45
2022/10/16 10:20:38;;;;;;;4.18;1.73;;;;;;;30.75;32.39;99694.72;5106405;27;20365;-46
2022/10/16 10:23:23;;;;;;;2.00;0.80;;;;;;;30.88;32.43;99689.06;5024034;28;20045;-47
2022/10/16 10:26:04;;;;;;;2.65;1.00;;;;;;;30.80;31.53;99688.94;5022972;28;20369;-46
2022/10/16 10:31:19;;;;;;;2.55;2.35;;;;;;;30.74;31.09;99696.56;5065733;27;20124;-47
2022/10/16 10:34:11;;;;;;;2.92;2.63;;;;;;;30.46;29.86;99695.59;5013335;28;20069;-43
2022/10/16 10:36:40;;;;;;;4.30;2.35;;;;;;;29.93;30.32;99693.19;5011910;28;20046;-47
2022/10/16 11:01:47;;;;;;;3.47;0.73;;;;;;;24.36;34.69;99715.47;5099152;27;20115;-46
2022/10/16 11:07:01;;;;;;;2.95;1.80;;;;;;;23.55;35.82;99710.00;5109199;27;20577;-44
2022/10/16 11:12:34;;;;;;;2.42;0.40;;;;;;;22.68;36.66;99717.81;5093741;27;20135;-46
2022/10/16 11:15:14;;;;;;;2.53;0.73;;;;;;;22.36;37.89;99720.50;5039608;28;20132;-45
2022/10/16 11:17:47;;;;;;;1.75;0.47;;;;;;;22.04;37.20;99719.63;5038646;28;20055;-43
2022/10/16 11:23:00;;;;;;;3.72;1.50;;;;;;;21.81;36.54;99699.81;5113004;27;20382;-45
2022/10/16 11:25:29;;;;;;;3.45;2.33;;;;;;;21.27;38.46;99701.75;5027760;28;20045;-45
2022/10/16 11:28:05;;;;;;;4.20;1.67;;;;;;;20.99;38.52;99702.34;5023865;28;20049;-45
2022/10/16 11:30:57;;;;;;;2.00;1.55;;;;;;;20.75;38.63;99707.94;5023258;28;20132;-42
2022/10/16 11:33:33;;;;;;;2.60;2.25;;;;;;;20.54;38.88;99703.66;5023288;28;20085;-42
2022/10/16 11:44:12;;;;;;;0.75;0.45;;;;;;;20.01;39.66;99711.50;5080831;27;20118;-44
2022/10/16 11:46:45;;;;;;;1.55;0.75;;;;;;;19.89;39.36;99717.28;5058949;28;20059;-44
2022/10/16 11:49:31;;;;;;;1.08;0.32;;;;;;;19.78;39.76;99709.91;5061320;28;20043;-43
2022/10/16 11:55:06;;;;;;;2.88;1.23;;;;;;;19.53;39.56;99701.38;5062354;27;20124;-41
2022/10/16 11:57:42;;;;;;;2.30;1.85;;;;;;;19.49;40.08;99705.06;5052479;28;20056;-42
2022/10/16 12:00:20;;;;;;;1.50;1.35;;;;;;;19.37;40.23;99703.00;5062053;28;20079;-41
2022/10/16 12:03:05;;;;;;;2.75;2.08;;;;;;;19.25;40.26;99700.00;5079014;28;20107;-43
2022/10/16 12:08:11;;;;;;;1.02;0.30;;;;;;;19.06;38.90;99712.19;5132541;27;20124;-45
2022/10/16 12:10:41;;;;;;;1.70;0.35;;;;;;;18.95;39.66;99710.88;5063149;28;20073;-44
2022/10/16 12:13:27;;;;;;;;;;;;;;;18.67;39.69;99706.81;5060300;28;20066;-43
2022/10/16 12:19:02;;;;;;;1.83;0.85;;;;;;;18.69;40.86;99701.50;5069529;27;20129;-44
2022/10/16 12:21:31;;;;;;;6.80;1.05;;;;;;;18.70;40.85;99706.69;5055708;28;20045;-43
2022/10/16 12:24:00;;;;;;;5.18;1.23;;;;;;;18.67;40.69;99706.81;5055665;28;20099;-42
2022/10/16 12:26:31;;;;;;;4.20;0.88;;;;;;;18.65;41.32;99703.44;5051524;28;20132;-43
2022/10/16 12:29:30;;;;;;;3.47;1.15;;;;;;;18.57;40.43;99708.13;5056274;28;20128;-43
2022/10/16 12:31:57;;;;;;;2.53;0.77;;;;;;;18.54;41.02;99714.34;5059856;28;20051;-41
2022/10/16 12:37:11;;;;;;;2.53;1.83;;;;;;;18.42;41.54;99715.72;5071683;27;20128;-43
2022/10/16 12:39:38;;;;;;;2.20;2.10;;;;;;;18.40;41.44;99714.91;5036454;28;20053;-45
2022/10/16 12:42:19;;;;;;;3.20;1.48;;;;;;;18.38;40.91;99711.53;5012993;28;20121;-42
2022/10/16 12:44:46;;;;;;;2.60;1.42;;;;;;;18.35;41.30;99711.63;5017203;28;20160;-43
2022/10/16 12:52:59;;;;;;;3.20;0.95;;;;;;;18.68;40.93;99707.69;5097894;27;20377;-45
2022/10/16 12:55:27;;;;;;;2.20;1.40;;;;;;;18.53;41.87;99709.16;5064198;28;20152;-47
2022/10/16 13:01:13;;;;;;;1.38;0.73;;;;;;;18.68;42.31;99712.94;5074579;27;20522;-42
2022/10/16 13:06:49;;;;;;;1.13;0.50;;;;;;;18.74;42.17;99708.28;5062144;27;20151;-43
2022/10/16 13:20:33;;;;;;;1.27;0.55;;;;;;;18.64;43.14;99717.44;5100129;27;20134;-43
2022/10/16 13:28:12;;;;;;;0.85;0.65;;;;;;;18.17;43.74;99724.56;5083614;27;20126;-41
2022/10/16 13:30:42;;;;;;;1.35;0.45;;;;;;;18.03;44.01;99722.44;5060373;28;20041;-42
2022/10/16 13:35:50;;;;;;;2.08;0.45;;;;;;;17.83;44.81;99713.59;5106300;27;20154;-41
2022/10/16 13:38:21;;;;;;;1.80;0.80;;;;;;;17.84;44.74;99717.91;5060837;28;20079;-41
2022/10/16 13:48:41;;;;;;;2.63;0.73;;;;;;;17.59;45.29;99702.28;5092662;27;20759;-40
2022/10/16 13:53:46;;;;;;;4.07;0.82;;;;;;;17.78;45.92;99712.94;5099470;27;20394;-42
2022/10/16 13:56:15;;;;;;;1.00;0.65;;;;;;;17.46;45.78;99702.75;5025060;28;20072;-42
2022/10/16 13:58:43;;;;;;;2.20;0.63;;;;;;;17.34;46.43;99708.44;5021673;28;20227;-42
2022/10/16 14:01:29;;;;;;;1.45;0.50;;;;;;;17.14;46.54;99706.53;5021004;28;20539;-43
2022/10/16 14:04:03;;;;;;;2.65;0.52;;;;;;;17.15;47.61;99697.75;5020284;28;20489;-41
2022/10/16 14:06:31;;;;;;;1.80;0.85;;;;;;;17.13;47.21;99700.47;5023740;28;20077;-42